sensor_id;sensor_type;location;lat;lon;timestamp;P1;durP1;ratioP1;P2;durP2;ratioP2
75246;SDS011;63844;50.042;19.224;2024-02-23T00:01:01;2.20;;;1.40;;
75246;SDS011;63844;50.042;19.224;2024-02-23T00:02:58;2.00;;;1.20;;
75246;SDS011;63844;50.042;19.224;2024-02-23T00:04:34;2.10;;;1.20;;
75246;SDS011;63844;50.042;19.224;2024-02-23T00:06:11;3.00;;;1.30;;
75246;SDS011;63844;50.042;19.224;2024-02-23T00:07:48;1.80;;;1.10;;
75246;SDS011;63844;50.042;19.224;2024-02-23T00:09:24;2.60;;;1.10;;
75246;SDS011;63844;50.042;19.224;2024-02-23T00:11:01;2.50;;;1.30;;
75246;SDS011;63844;50.042;19.224;2024-02-23T00:12:37;1.60;;;1.00;;
75246;SDS011;63844;50.042;19.224;2024-02-23T00:14:14;2.20;;;1.10;;
75246;SDS011;63844;50.042;19.224;2024-02-23T00:15:51;2.60;;;1.20;;
75246;SDS011;63844;50.042;19.224;2024-02-23T00:17:28;1.60;;;0.80;;
75246;SDS011;63844;50.042;19.224;2024-02-23T00:19:04;2.70;;;1.40;;
75246;SDS011;63844;50.042;19.224;2024-02-23T00:20:41;1.40;;;1.00;;
75246;SDS011;63844;50.042;19.224;2024-02-23T00:22:17;1.80;;;1.20;;
75246;SDS011;63844;50.042;19.224;2024-02-23T00:23:54;2.30;;;1.50;;
75246;SDS011;63844;50.042;19.224;2024-02-23T00:25:31;2.50;;;1.30;;
75246;SDS011;63844;50.042;19.224;2024-02-23T00:27:07;1.70;;;1.00;;
75246;SDS011;63844;50.042;19.224;2024-02-23T00:28:44;1.90;;;1.20;;
75246;SDS011;63844;50.042;19.224;2024-02-23T00:30:20;2.50;;;1.00;;
75246;SDS011;63844;50.042;19.224;2024-02-23T00:31:57;2.00;;;1.00;;
75246;SDS011;63844;50.042;19.224;2024-02-23T00:33:33;1.90;;;1.20;;
75246;SDS011;63844;50.042;19.224;2024-02-23T00:35:11;2.90;;;1.00;;
75246;SDS011;63844;50.042;19.224;2024-02-23T00:36:47;2.30;;;1.20;;
75246;SDS011;63844;50.042;19.224;2024-02-23T00:38:24;2.80;;;1.20;;
75246;SDS011;63844;50.042;19.224;2024-02-23T00:40:04;3.50;;;1.50;;
75246;SDS011;63844;50.042;19.224;2024-02-23T00:41:41;2.00;;;1.20;;
75246;SDS011;63844;50.042;19.224;2024-02-23T00:43:18;1.60;;;0.70;;
75246;SDS011;63844;50.042;19.224;2024-02-23T00:44:55;1.90;;;1.20;;
75246;SDS011;63844;50.042;19.224;2024-02-23T00:46:32;2.40;;;0.90;;
75246;SDS011;63844;50.042;19.224;2024-02-23T00:48:09;2.40;;;1.50;;
75246;SDS011;63844;50.042;19.224;2024-02-23T00:49:46;3.50;;;1.30;;
75246;SDS011;63844;50.042;19.224;2024-02-23T00:51:22;2.30;;;1.30;;
75246;SDS011;63844;50.042;19.224;2024-02-23T00:52:59;2.00;;;1.60;;
75246;SDS011;63844;50.042;19.224;2024-02-23T00:54:35;2.80;;;1.30;;
75246;SDS011;63844;50.042;19.224;2024-02-23T00:56:12;1.70;;;1.20;;
75246;SDS011;63844;50.042;19.224;2024-02-23T00:57:49;2.50;;;1.40;;
75246;SDS011;63844;50.042;19.224;2024-02-23T00:59:25;3.20;;;1.30;;
75246;SDS011;63844;50.042;19.224;2024-02-23T01:01:02;3.10;;;1.60;;
75246;SDS011;63844;50.042;19.224;2024-02-23T01:02:38;2.50;;;1.40;;
75246;SDS011;63844;50.042;19.224;2024-02-23T01:04:16;4.00;;;1.30;;
75246;SDS011;63844;50.042;19.224;2024-02-23T01:05:52;1.90;;;1.30;;
75246;SDS011;63844;50.042;19.224;2024-02-23T01:07:29;2.10;;;1.20;;
75246;SDS011;63844;50.042;19.224;2024-02-23T01:09:05;2.90;;;1.40;;
75246;SDS011;63844;50.042;19.224;2024-02-23T01:10:42;1.80;;;1.30;;
75246;SDS011;63844;50.042;19.224;2024-02-23T01:12:18;2.90;;;1.60;;
75246;SDS011;63844;50.042;19.224;2024-02-23T01:13:55;2.10;;;1.20;;
75246;SDS011;63844;50.042;19.224;2024-02-23T01:15:32;3.20;;;1.50;;
75246;SDS011;63844;50.042;19.224;2024-02-23T01:17:09;7.90;;;1.50;;
75246;SDS011;63844;50.042;19.224;2024-02-23T01:18:45;1.80;;;1.10;;
75246;SDS011;63844;50.042;19.224;2024-02-23T01:20:22;3.00;;;1.50;;
75246;SDS011;63844;50.042;19.224;2024-02-23T01:21:58;2.50;;;1.20;;
75246;SDS011;63844;50.042;19.224;2024-02-23T01:23:35;2.30;;;1.30;;
75246;SDS011;63844;50.042;19.224;2024-02-23T01:25:12;3.40;;;1.50;;
75246;SDS011;63844;50.042;19.224;2024-02-23T01:26:51;2.10;;;1.20;;
75246;SDS011;63844;50.042;19.224;2024-02-23T01:28:27;2.60;;;1.30;;
75246;SDS011;63844;50.042;19.224;2024-02-23T01:30:04;2.30;;;1.10;;
75246;SDS011;63844;50.042;19.224;2024-02-23T01:31:41;2.50;;;1.40;;
75246;SDS011;63844;50.042;19.224;2024-02-23T01:33:18;2.60;;;1.20;;
75246;SDS011;63844;50.042;19.224;2024-02-23T01:34:54;1.80;;;1.00;;
75246;SDS011;63844;50.042;19.224;2024-02-23T01:36:31;2.90;;;1.20;;
75246;SDS011;63844;50.042;19.224;2024-02-23T01:38:07;2.20;;;1.20;;
75246;SDS011;63844;50.042;19.224;2024-02-23T01:39:43;2.30;;;1.10;;
75246;SDS011;63844;50.042;19.224;2024-02-23T01:41:21;2.10;;;1.00;;
75246;SDS011;63844;50.042;19.224;2024-02-23T01:43:01;1.60;;;0.90;;
75246;SDS011;63844;50.042;19.224;2024-02-23T01:44:39;3.30;;;1.20;;
75246;SDS011;63844;50.042;19.224;2024-02-23T01:46:15;2.00;;;1.10;;
75246;SDS011;63844;50.042;19.224;2024-02-23T01:47:54;2.40;;;1.30;;
75246;SDS011;63844;50.042;19.224;2024-02-23T01:49:32;2.20;;;1.50;;
75246;SDS011;63844;50.042;19.224;2024-02-23T01:51:10;2.90;;;1.40;;
75246;SDS011;63844;50.042;19.224;2024-02-23T01:52:48;2.50;;;1.20;;
75246;SDS011;63844;50.042;19.224;2024-02-23T01:54:24;5.20;;;2.00;;
75246;SDS011;63844;50.042;19.224;2024-02-23T01:56:02;2.00;;;1.10;;
75246;SDS011;63844;50.042;19.224;2024-02-23T01:57:40;2.30;;;1.40;;
75246;SDS011;63844;50.042;19.224;2024-02-23T01:59:17;2.50;;;1.40;;
75246;SDS011;63844;50.042;19.224;2024-02-23T02:00:54;1.60;;;1.30;;
75246;SDS011;63844;50.042;19.224;2024-02-23T02:02:30;2.80;;;1.30;;
75246;SDS011;63844;50.042;19.224;2024-02-23T02:04:08;2.30;;;1.30;;
75246;SDS011;63844;50.042;19.224;2024-02-23T02:05:44;1.80;;;1.30;;
75246;SDS011;63844;50.042;19.224;2024-02-23T02:07:21;3.60;;;1.50;;
75246;SDS011;63844;50.042;19.224;2024-02-23T02:09:00;3.30;;;1.60;;
75246;SDS011;63844;50.042;19.224;2024-02-23T02:10:36;2.60;;;1.80;;
75246;SDS011;63844;50.042;19.224;2024-02-23T02:12:13;3.30;;;1.90;;
75246;SDS011;63844;50.042;19.224;2024-02-23T02:13:49;3.30;;;2.10;;
75246;SDS011;63844;50.042;19.224;2024-02-23T02:15:26;3.20;;;1.90;;
75246;SDS011;63844;50.042;19.224;2024-02-23T02:17:02;6.40;;;2.40;;
75246;SDS011;63844;50.042;19.224;2024-02-23T02:18:39;4.60;;;2.40;;
75246;SDS011;63844;50.042;19.224;2024-02-23T02:20:15;3.60;;;1.70;;
75246;SDS011;63844;50.042;19.224;2024-02-23T02:21:59;3.10;;;1.60;;
75246;SDS011;63844;50.042;19.224;2024-02-23T02:23:36;4.80;;;1.90;;
75246;SDS011;63844;50.042;19.224;2024-02-23T02:25:13;3.20;;;1.60;;
75246;SDS011;63844;50.042;19.224;2024-02-23T02:26:52;5.20;;;2.20;;
75246;SDS011;63844;50.042;19.224;2024-02-23T02:28:28;3.40;;;1.80;;
75246;SDS011;63844;50.042;19.224;2024-02-23T02:30:05;3.40;;;1.80;;
75246;SDS011;63844;50.042;19.224;2024-02-23T02:31:42;4.20;;;2.10;;
75246;SDS011;63844;50.042;19.224;2024-02-23T02:33:18;3.40;;;1.70;;
75246;SDS011;63844;50.042;19.224;2024-02-23T02:34:55;3.80;;;1.80;;
75246;SDS011;63844;50.042;19.224;2024-02-23T02:36:31;5.40;;;1.70;;
75246;SDS011;63844;50.042;19.224;2024-02-23T02:38:08;2.70;;;1.70;;
75246;SDS011;63844;50.042;19.224;2024-02-23T02:39:44;3.50;;;1.30;;
75246;SDS011;63844;50.042;19.224;2024-02-23T02:41:22;2.60;;;1.40;;
75246;SDS011;63844;50.042;19.224;2024-02-23T02:43:01;1.90;;;1.20;;
75246;SDS011;63844;50.042;19.224;2024-02-23T02:44:38;2.30;;;1.10;;
75246;SDS011;63844;50.042;19.224;2024-02-23T02:46:14;4.00;;;1.30;;
75246;SDS011;63844;50.042;19.224;2024-02-23T02:47:51;2.60;;;1.40;;
75246;SDS011;63844;50.042;19.224;2024-02-23T02:49:27;2.30;;;1.00;;
75246;SDS011;63844;50.042;19.224;2024-02-23T02:51:04;2.20;;;1.30;;
75246;SDS011;63844;50.042;19.224;2024-02-23T02:52:40;2.20;;;1.10;;
75246;SDS011;63844;50.042;19.224;2024-02-23T02:54:17;1.70;;;1.10;;
75246;SDS011;63844;50.042;19.224;2024-02-23T02:55:54;1.80;;;1.30;;
75246;SDS011;63844;50.042;19.224;2024-02-23T02:57:31;1.90;;;1.30;;
75246;SDS011;63844;50.042;19.224;2024-02-23T02:59:07;3.60;;;1.60;;
75246;SDS011;63844;50.042;19.224;2024-02-23T03:00:44;4.00;;;1.10;;
75246;SDS011;63844;50.042;19.224;2024-02-23T03:02:20;2.80;;;1.50;;
75246;SDS011;63844;50.042;19.224;2024-02-23T03:03:57;3.00;;;1.40;;
75246;SDS011;63844;50.042;19.224;2024-02-23T03:05:33;2.60;;;1.50;;
75246;SDS011;63844;50.042;19.224;2024-02-23T03:07:10;2.40;;;1.50;;
75246;SDS011;63844;50.042;19.224;2024-02-23T03:08:46;3.10;;;1.20;;
75246;SDS011;63844;50.042;19.224;2024-02-23T03:10:23;2.90;;;1.50;;
75246;SDS011;63844;50.042;19.224;2024-02-23T03:11:59;2.80;;;1.50;;
75246;SDS011;63844;50.042;19.224;2024-02-23T03:13:36;4.00;;;1.70;;
75246;SDS011;63844;50.042;19.224;2024-02-23T03:15:13;2.40;;;1.50;;
75246;SDS011;63844;50.042;19.224;2024-02-23T03:16:49;1.90;;;1.20;;
75246;SDS011;63844;50.042;19.224;2024-02-23T03:18:26;1.60;;;1.30;;
75246;SDS011;63844;50.042;19.224;2024-02-23T03:20:04;2.30;;;1.60;;
75246;SDS011;63844;50.042;19.224;2024-02-23T03:21:44;3.20;;;1.70;;
75246;SDS011;63844;50.042;19.224;2024-02-23T03:23:21;2.80;;;1.90;;
75246;SDS011;63844;50.042;19.224;2024-02-23T03:24:57;3.70;;;1.90;;
75246;SDS011;63844;50.042;19.224;2024-02-23T03:26:34;3.20;;;2.00;;
75246;SDS011;63844;50.042;19.224;2024-02-23T03:28:10;3.40;;;1.70;;
75246;SDS011;63844;50.042;19.224;2024-02-23T03:29:47;3.20;;;2.00;;
75246;SDS011;63844;50.042;19.224;2024-02-23T03:31:23;4.80;;;2.30;;
75246;SDS011;63844;50.042;19.224;2024-02-23T03:33:00;4.20;;;2.70;;
75246;SDS011;63844;50.042;19.224;2024-02-23T03:34:37;4.40;;;2.30;;
75246;SDS011;63844;50.042;19.224;2024-02-23T03:36:13;3.10;;;2.10;;
75246;SDS011;63844;50.042;19.224;2024-02-23T03:37:50;5.10;;;2.30;;
75246;SDS011;63844;50.042;19.224;2024-02-23T03:39:26;3.40;;;2.20;;
75246;SDS011;63844;50.042;19.224;2024-02-23T03:41:04;3.20;;;2.00;;
75246;SDS011;63844;50.042;19.224;2024-02-23T03:42:42;3.70;;;2.10;;
75246;SDS011;63844;50.042;19.224;2024-02-23T03:44:19;4.00;;;2.30;;
75246;SDS011;63844;50.042;19.224;2024-02-23T03:45:55;7.00;;;4.50;;
75246;SDS011;63844;50.042;19.224;2024-02-23T03:47:32;6.30;;;4.10;;
75246;SDS011;63844;50.042;19.224;2024-02-23T03:49:08;5.40;;;3.30;;
75246;SDS011;63844;50.042;19.224;2024-02-23T03:50:45;5.90;;;4.00;;
75246;SDS011;63844;50.042;19.224;2024-02-23T03:52:22;10.20;;;6.20;;
75246;SDS011;63844;50.042;19.224;2024-02-23T03:53:58;9.80;;;6.70;;
75246;SDS011;63844;50.042;19.224;2024-02-23T03:55:35;8.40;;;4.70;;
75246;SDS011;63844;50.042;19.224;2024-02-23T03:57:11;11.20;;;7.70;;
75246;SDS011;63844;50.042;19.224;2024-02-23T03:58:48;9.60;;;7.20;;
75246;SDS011;63844;50.042;19.224;2024-02-23T04:00:24;7.80;;;5.50;;
75246;SDS011;63844;50.042;19.224;2024-02-23T04:02:01;7.20;;;4.80;;
75246;SDS011;63844;50.042;19.224;2024-02-23T04:03:37;9.60;;;6.50;;
75246;SDS011;63844;50.042;19.224;2024-02-23T04:05:14;7.00;;;5.20;;
75246;SDS011;63844;50.042;19.224;2024-02-23T04:06:51;7.00;;;4.90;;
75246;SDS011;63844;50.042;19.224;2024-02-23T04:08:27;9.40;;;5.20;;
75246;SDS011;63844;50.042;19.224;2024-02-23T04:10:04;10.60;;;6.30;;
75246;SDS011;63844;50.042;19.224;2024-02-23T04:11:40;9.20;;;5.60;;
75246;SDS011;63844;50.042;19.224;2024-02-23T04:13:17;8.00;;;5.80;;
75246;SDS011;63844;50.042;19.224;2024-02-23T04:14:54;8.40;;;5.60;;
75246;SDS011;63844;50.042;19.224;2024-02-23T04:16:30;8.20;;;5.10;;
75246;SDS011;63844;50.042;19.224;2024-02-23T04:18:07;9.70;;;5.80;;
75246;SDS011;63844;50.042;19.224;2024-02-23T04:19:44;8.90;;;5.70;;
75246;SDS011;63844;50.042;19.224;2024-02-23T04:21:20;9.90;;;5.70;;
75246;SDS011;63844;50.042;19.224;2024-02-23T04:22:57;9.70;;;5.80;;
75246;SDS011;63844;50.042;19.224;2024-02-23T04:24:33;8.20;;;5.90;;
75246;SDS011;63844;50.042;19.224;2024-02-23T04:26:10;9.10;;;6.40;;
75246;SDS011;63844;50.042;19.224;2024-02-23T04:27:46;9.40;;;6.40;;
75246;SDS011;63844;50.042;19.224;2024-02-23T04:29:23;8.80;;;6.30;;
75246;SDS011;63844;50.042;19.224;2024-02-23T04:30:59;8.80;;;5.40;;
75246;SDS011;63844;50.042;19.224;2024-02-23T04:32:37;10.80;;;6.30;;
75246;SDS011;63844;50.042;19.224;2024-02-23T04:34:14;9.50;;;5.60;;
75246;SDS011;63844;50.042;19.224;2024-02-23T04:35:52;9.40;;;6.50;;
75246;SDS011;63844;50.042;19.224;2024-02-23T04:37:28;13.20;;;6.90;;
75246;SDS011;63844;50.042;19.224;2024-02-23T04:39:05;10.70;;;6.30;;
75246;SDS011;63844;50.042;19.224;2024-02-23T04:40:41;11.90;;;7.40;;
75246;SDS011;63844;50.042;19.224;2024-02-23T04:42:18;11.50;;;7.50;;
75246;SDS011;63844;50.042;19.224;2024-02-23T04:43:54;10.90;;;6.90;;
75246;SDS011;63844;50.042;19.224;2024-02-23T04:45:36;11.90;;;7.40;;
75246;SDS011;63844;50.042;19.224;2024-02-23T04:47:12;12.00;;;7.70;;
75246;SDS011;63844;50.042;19.224;2024-02-23T04:48:49;12.40;;;7.30;;
75246;SDS011;63844;50.042;19.224;2024-02-23T04:50:25;12.60;;;7.50;;
75246;SDS011;63844;50.042;19.224;2024-02-23T04:52:02;14.40;;;8.00;;
75246;SDS011;63844;50.042;19.224;2024-02-23T04:53:38;15.70;;;8.40;;
75246;SDS011;63844;50.042;19.224;2024-02-23T04:55:15;15.20;;;9.90;;
75246;SDS011;63844;50.042;19.224;2024-02-23T04:56:51;16.50;;;9.40;;
75246;SDS011;63844;50.042;19.224;2024-02-23T04:58:28;19.50;;;9.90;;
75246;SDS011;63844;50.042;19.224;2024-02-23T05:00:05;16.10;;;9.30;;
75246;SDS011;63844;50.042;19.224;2024-02-23T05:01:43;18.30;;;10.10;;
75246;SDS011;63844;50.042;19.224;2024-02-23T05:03:20;19.70;;;9.80;;
75246;SDS011;63844;50.042;19.224;2024-02-23T05:04:57;20.60;;;10.50;;
75246;SDS011;63844;50.042;19.224;2024-02-23T05:06:33;18.80;;;10.10;;
75246;SDS011;63844;50.042;19.224;2024-02-23T05:08:11;21.40;;;10.10;;
75246;SDS011;63844;50.042;19.224;2024-02-23T05:09:48;21.30;;;11.30;;
75246;SDS011;63844;50.042;19.224;2024-02-23T05:11:24;18.80;;;10.10;;
75246;SDS011;63844;50.042;19.224;2024-02-23T05:13:01;22.10;;;10.80;;
75246;SDS011;63844;50.042;19.224;2024-02-23T05:14:37;18.90;;;10.90;;
75246;SDS011;63844;50.042;19.224;2024-02-23T05:16:14;21.20;;;10.40;;
75246;SDS011;63844;50.042;19.224;2024-02-23T05:17:51;19.80;;;11.10;;
75246;SDS011;63844;50.042;19.224;2024-02-23T05:19:28;20.00;;;10.20;;
75246;SDS011;63844;50.042;19.224;2024-02-23T05:21:04;19.40;;;9.70;;
75246;SDS011;63844;50.042;19.224;2024-02-23T05:22:41;20.10;;;10.40;;
75246;SDS011;63844;50.042;19.224;2024-02-23T05:24:17;21.60;;;10.90;;
75246;SDS011;63844;50.042;19.224;2024-02-23T05:25:54;20.90;;;10.20;;
75246;SDS011;63844;50.042;19.224;2024-02-23T05:27:31;20.20;;;10.80;;
75246;SDS011;63844;50.042;19.224;2024-02-23T05:29:08;16.50;;;8.30;;
75246;SDS011;63844;50.042;19.224;2024-02-23T05:30:44;18.70;;;9.80;;
75246;SDS011;63844;50.042;19.224;2024-02-23T05:32:21;17.00;;;9.60;;
75246;SDS011;63844;50.042;19.224;2024-02-23T05:33:57;16.00;;;9.00;;
75246;SDS011;63844;50.042;19.224;2024-02-23T05:35:34;20.60;;;10.80;;
75246;SDS011;63844;50.042;19.224;2024-02-23T05:37:10;16.00;;;9.60;;
75246;SDS011;63844;50.042;19.224;2024-02-23T05:38:47;21.00;;;11.50;;
75246;SDS011;63844;50.042;19.224;2024-02-23T05:40:23;19.60;;;12.20;;
75246;SDS011;63844;50.042;19.224;2024-02-23T05:41:59;18.20;;;10.50;;
75246;SDS011;63844;50.042;19.224;2024-02-23T05:43:36;19.00;;;10.50;;
75246;SDS011;63844;50.042;19.224;2024-02-23T05:45:13;19.30;;;11.70;;
75246;SDS011;63844;50.042;19.224;2024-02-23T05:46:49;18.00;;;10.40;;
75246;SDS011;63844;50.042;19.224;2024-02-23T05:48:26;21.50;;;12.10;;
75246;SDS011;63844;50.042;19.224;2024-02-23T05:50:03;22.30;;;11.10;;
75246;SDS011;63844;50.042;19.224;2024-02-23T05:51:40;19.20;;;10.90;;
75246;SDS011;63844;50.042;19.224;2024-02-23T05:53:17;18.50;;;10.30;;
75246;SDS011;63844;50.042;19.224;2024-02-23T05:54:53;18.10;;;10.80;;
75246;SDS011;63844;50.042;19.224;2024-02-23T05:56:32;20.70;;;10.80;;
75246;SDS011;63844;50.042;19.224;2024-02-23T05:58:08;19.90;;;10.70;;
75246;SDS011;63844;50.042;19.224;2024-02-23T05:59:45;20.60;;;11.10;;
75246;SDS011;63844;50.042;19.224;2024-02-23T06:01:22;19.30;;;10.80;;
75246;SDS011;63844;50.042;19.224;2024-02-23T06:02:59;18.60;;;10.00;;
75246;SDS011;63844;50.042;19.224;2024-02-23T06:04:36;17.60;;;10.90;;
75246;SDS011;63844;50.042;19.224;2024-02-23T06:06:12;16.10;;;9.90;;
75246;SDS011;63844;50.042;19.224;2024-02-23T06:07:49;17.50;;;10.60;;
75246;SDS011;63844;50.042;19.224;2024-02-23T06:09:25;19.40;;;11.00;;
75246;SDS011;63844;50.042;19.224;2024-02-23T06:11:02;19.70;;;10.80;;
75246;SDS011;63844;50.042;19.224;2024-02-23T06:12:40;18.60;;;10.60;;
75246;SDS011;63844;50.042;19.224;2024-02-23T06:14:16;16.60;;;9.70;;
75246;SDS011;63844;50.042;19.224;2024-02-23T06:15:53;14.80;;;9.30;;
75246;SDS011;63844;50.042;19.224;2024-02-23T06:17:30;16.90;;;9.00;;
75246;SDS011;63844;50.042;19.224;2024-02-23T06:19:06;15.10;;;9.20;;
75246;SDS011;63844;50.042;19.224;2024-02-23T06:20:43;14.60;;;8.20;;
75246;SDS011;63844;50.042;19.224;2024-02-23T06:22:19;14.30;;;8.70;;
75246;SDS011;63844;50.042;19.224;2024-02-23T06:24:00;14.40;;;8.40;;
75246;SDS011;63844;50.042;19.224;2024-02-23T06:25:36;14.20;;;8.80;;
75246;SDS011;63844;50.042;19.224;2024-02-23T06:27:13;13.90;;;9.10;;
75246;SDS011;63844;50.042;19.224;2024-02-23T06:28:49;14.60;;;8.90;;
75246;SDS011;63844;50.042;19.224;2024-02-23T06:30:26;14.20;;;8.90;;
75246;SDS011;63844;50.042;19.224;2024-02-23T06:32:02;16.30;;;9.40;;
75246;SDS011;63844;50.042;19.224;2024-02-23T06:33:39;15.90;;;9.10;;
75246;SDS011;63844;50.042;19.224;2024-02-23T06:35:17;16.10;;;9.80;;
75246;SDS011;63844;50.042;19.224;2024-02-23T06:36:53;18.70;;;11.10;;
75246;SDS011;63844;50.042;19.224;2024-02-23T06:38:30;18.80;;;11.00;;
75246;SDS011;63844;50.042;19.224;2024-02-23T06:40:06;17.30;;;11.10;;
75246;SDS011;63844;50.042;19.224;2024-02-23T06:41:43;18.70;;;11.30;;
75246;SDS011;63844;50.042;19.224;2024-02-23T06:43:20;18.70;;;10.90;;
75246;SDS011;63844;50.042;19.224;2024-02-23T06:44:56;15.00;;;9.70;;
75246;SDS011;63844;50.042;19.224;2024-02-23T06:46:33;19.50;;;12.30;;
75246;SDS011;63844;50.042;19.224;2024-02-23T06:48:09;25.10;;;15.10;;
75246;SDS011;63844;50.042;19.224;2024-02-23T06:49:46;27.00;;;15.70;;
75246;SDS011;63844;50.042;19.224;2024-02-23T06:51:22;23.40;;;14.60;;
75246;SDS011;63844;50.042;19.224;2024-02-23T06:52:59;24.00;;;13.90;;
75246;SDS011;63844;50.042;19.224;2024-02-23T06:54:36;25.60;;;14.30;;
75246;SDS011;63844;50.042;19.224;2024-02-23T06:56:13;23.90;;;14.20;;
75246;SDS011;63844;50.042;19.224;2024-02-23T06:57:50;22.70;;;13.80;;
75246;SDS011;63844;50.042;19.224;2024-02-23T06:59:26;22.50;;;14.90;;
75246;SDS011;63844;50.042;19.224;2024-02-23T07:01:03;24.10;;;13.80;;
75246;SDS011;63844;50.042;19.224;2024-02-23T07:02:41;22.10;;;13.60;;
75246;SDS011;63844;50.042;19.224;2024-02-23T07:04:18;24.80;;;14.00;;
75246;SDS011;63844;50.042;19.224;2024-02-23T07:05:55;22.90;;;13.30;;
75246;SDS011;63844;50.042;19.224;2024-02-23T07:07:32;23.30;;;14.30;;
75246;SDS011;63844;50.042;19.224;2024-02-23T07:09:09;24.60;;;14.60;;
75246;SDS011;63844;50.042;19.224;2024-02-23T07:10:47;27.70;;;14.20;;
75246;SDS011;63844;50.042;19.224;2024-02-23T07:12:24;22.30;;;13.40;;
75246;SDS011;63844;50.042;19.224;2024-02-23T07:14:01;26.80;;;15.70;;
75246;SDS011;63844;50.042;19.224;2024-02-23T07:15:37;28.70;;;15.90;;
75246;SDS011;63844;50.042;19.224;2024-02-23T07:17:16;24.10;;;14.20;;
75246;SDS011;63844;50.042;19.224;2024-02-23T07:18:53;26.50;;;17.50;;
75246;SDS011;63844;50.042;19.224;2024-02-23T07:20:31;31.20;;;17.90;;
75246;SDS011;63844;50.042;19.224;2024-02-23T07:22:07;28.60;;;18.20;;
75246;SDS011;63844;50.042;19.224;2024-02-23T07:23:44;40.90;;;25.30;;
75246;SDS011;63844;50.042;19.224;2024-02-23T07:25:20;40.90;;;24.30;;
75246;SDS011;63844;50.042;19.224;2024-02-23T07:26:57;38.40;;;22.90;;
75246;SDS011;63844;50.042;19.224;2024-02-23T07:28:33;40.10;;;22.70;;
75246;SDS011;63844;50.042;19.224;2024-02-23T07:30:10;39.00;;;22.90;;
75246;SDS011;63844;50.042;19.224;2024-02-23T07:31:48;37.80;;;23.00;;
75246;SDS011;63844;50.042;19.224;2024-02-23T07:33:24;35.10;;;22.70;;
75246;SDS011;63844;50.042;19.224;2024-02-23T07:35:01;39.70;;;23.10;;
75246;SDS011;63844;50.042;19.224;2024-02-23T07:36:37;41.90;;;24.40;;
75246;SDS011;63844;50.042;19.224;2024-02-23T07:38:14;37.40;;;21.80;;
75246;SDS011;63844;50.042;19.224;2024-02-23T07:39:51;38.40;;;21.90;;
75246;SDS011;63844;50.042;19.224;2024-02-23T07:41:28;35.30;;;21.00;;
75246;SDS011;63844;50.042;19.224;2024-02-23T07:43:05;33.10;;;19.80;;
75246;SDS011;63844;50.042;19.224;2024-02-23T07:44:42;29.30;;;18.90;;
75246;SDS011;63844;50.042;19.224;2024-02-23T07:46:18;30.40;;;16.60;;
75246;SDS011;63844;50.042;19.224;2024-02-23T07:47:55;24.60;;;14.80;;
75246;SDS011;63844;50.042;19.224;2024-02-23T07:49:32;18.50;;;10.40;;
75246;SDS011;63844;50.042;19.224;2024-02-23T07:51:08;18.80;;;12.00;;
75246;SDS011;63844;50.042;19.224;2024-02-23T07:52:45;17.20;;;9.50;;
75246;SDS011;63844;50.042;19.224;2024-02-23T07:54:22;13.90;;;8.50;;
75246;SDS011;63844;50.042;19.224;2024-02-23T07:55:59;10.90;;;7.10;;
75246;SDS011;63844;50.042;19.224;2024-02-23T07:57:38;11.60;;;6.80;;
75246;SDS011;63844;50.042;19.224;2024-02-23T07:59:15;11.40;;;6.90;;
75246;SDS011;63844;50.042;19.224;2024-02-23T08:00:52;6.80;;;4.50;;
75246;SDS011;63844;50.042;19.224;2024-02-23T08:02:29;9.90;;;4.70;;
75246;SDS011;63844;50.042;19.224;2024-02-23T08:04:05;9.80;;;5.20;;
75246;SDS011;63844;50.042;19.224;2024-02-23T08:05:42;9.50;;;5.20;;
75246;SDS011;63844;50.042;19.224;2024-02-23T08:07:18;11.20;;;6.40;;
75246;SDS011;63844;50.042;19.224;2024-02-23T08:08:55;10.00;;;6.40;;
75246;SDS011;63844;50.042;19.224;2024-02-23T08:10:31;11.50;;;6.40;;
75246;SDS011;63844;50.042;19.224;2024-02-23T08:12:08;9.10;;;5.70;;
75246;SDS011;63844;50.042;19.224;2024-02-23T08:13:45;8.80;;;4.80;;
75246;SDS011;63844;50.042;19.224;2024-02-23T08:15:22;5.70;;;3.50;;
75246;SDS011;63844;50.042;19.224;2024-02-23T08:16:59;5.70;;;2.80;;
75246;SDS011;63844;50.042;19.224;2024-02-23T08:18:35;5.10;;;2.70;;
75246;SDS011;63844;50.042;19.224;2024-02-23T08:20:12;5.10;;;2.50;;
75246;SDS011;63844;50.042;19.224;2024-02-23T08:21:49;3.70;;;2.20;;
75246;SDS011;63844;50.042;19.224;2024-02-23T08:23:25;4.50;;;2.50;;
75246;SDS011;63844;50.042;19.224;2024-02-23T08:25:02;3.40;;;2.00;;
75246;SDS011;63844;50.042;19.224;2024-02-23T08:26:39;4.20;;;1.70;;
75246;SDS011;63844;50.042;19.224;2024-02-23T08:28:17;3.30;;;1.80;;
75246;SDS011;63844;50.042;19.224;2024-02-23T08:29:53;3.90;;;2.10;;
75246;SDS011;63844;50.042;19.224;2024-02-23T08:31:30;4.30;;;1.70;;
75246;SDS011;63844;50.042;19.224;2024-02-23T08:33:06;3.30;;;1.70;;
75246;SDS011;63844;50.042;19.224;2024-02-23T08:34:46;2.70;;;1.60;;
75246;SDS011;63844;50.042;19.224;2024-02-23T08:36:23;3.80;;;1.80;;
75246;SDS011;63844;50.042;19.224;2024-02-23T08:37:59;4.80;;;1.90;;
75246;SDS011;63844;50.042;19.224;2024-02-23T08:39:36;3.40;;;1.90;;
75246;SDS011;63844;50.042;19.224;2024-02-23T08:41:13;3.10;;;1.60;;
75246;SDS011;63844;50.042;19.224;2024-02-23T08:42:49;4.30;;;1.70;;
75246;SDS011;63844;50.042;19.224;2024-02-23T08:44:26;4.60;;;2.00;;
75246;SDS011;63844;50.042;19.224;2024-02-23T08:46:02;3.80;;;2.30;;
75246;SDS011;63844;50.042;19.224;2024-02-23T08:47:41;6.40;;;2.60;;
75246;SDS011;63844;50.042;19.224;2024-02-23T08:49:18;5.50;;;3.00;;
75246;SDS011;63844;50.042;19.224;2024-02-23T08:50:54;6.10;;;3.70;;
75246;SDS011;63844;50.042;19.224;2024-02-23T08:52:31;5.50;;;3.70;;
75246;SDS011;63844;50.042;19.224;2024-02-23T08:54:08;6.00;;;3.30;;
75246;SDS011;63844;50.042;19.224;2024-02-23T08:55:46;6.30;;;3.90;;
75246;SDS011;63844;50.042;19.224;2024-02-23T08:57:22;5.60;;;3.50;;
75246;SDS011;63844;50.042;19.224;2024-02-23T08:58:59;6.10;;;3.30;;
75246;SDS011;63844;50.042;19.224;2024-02-23T09:00:36;6.60;;;3.60;;
75246;SDS011;63844;50.042;19.224;2024-02-23T09:02:15;6.00;;;3.40;;
75246;SDS011;63844;50.042;19.224;2024-02-23T09:03:52;7.30;;;3.70;;
75246;SDS011;63844;50.042;19.224;2024-02-23T09:05:28;7.50;;;4.40;;
75246;SDS011;63844;50.042;19.224;2024-02-23T09:07:05;8.90;;;5.50;;
75246;SDS011;63844;50.042;19.224;2024-02-23T09:08:42;8.70;;;6.00;;
75246;SDS011;63844;50.042;19.224;2024-02-23T09:10:19;9.60;;;6.00;;
75246;SDS011;63844;50.042;19.224;2024-02-23T09:11:56;8.90;;;5.40;;
75246;SDS011;63844;50.042;19.224;2024-02-23T09:13:32;8.70;;;4.40;;
75246;SDS011;63844;50.042;19.224;2024-02-23T09:15:09;7.30;;;4.90;;
75246;SDS011;63844;50.042;19.224;2024-02-23T09:16:45;7.20;;;3.50;;
75246;SDS011;63844;50.042;19.224;2024-02-23T09:18:23;7.60;;;4.20;;
75246;SDS011;63844;50.042;19.224;2024-02-23T09:20:00;6.70;;;3.80;;
75246;SDS011;63844;50.042;19.224;2024-02-23T09:21:36;7.90;;;4.80;;
75246;SDS011;63844;50.042;19.224;2024-02-23T09:23:13;7.90;;;4.30;;
75246;SDS011;63844;50.042;19.224;2024-02-23T09:24:49;7.00;;;3.20;;
75246;SDS011;63844;50.042;19.224;2024-02-23T09:26:26;6.80;;;3.50;;
75246;SDS011;63844;50.042;19.224;2024-02-23T09:28:02;8.00;;;4.10;;
75246;SDS011;63844;50.042;19.224;2024-02-23T09:29:40;5.50;;;3.30;;